createdAt,value
2019-04-30T00:00:18.275Z,95.90
2019-04-30T00:02:51.795Z,95.90
2019-04-30T00:05:20.481Z,96.00
2019-04-30T00:07:50.788Z,96.00
2019-04-30T00:10:19.545Z,96.10
2019-04-30T00:12:48.283Z,95.80
2019-04-30T00:15:19.478Z,95.90
2019-04-30T00:17:52.686Z,96.10
2019-04-30T00:20:17.829Z,95.90
2019-04-30T00:22:50.343Z,95.80
2019-04-30T00:25:19.703Z,95.80
2019-04-30T00:27:48.125Z,95.80
2019-04-30T00:30:17.004Z,95.70
2019-04-30T00:32:47.237Z,96.00
2019-04-30T00:35:19.537Z,95.70
2019-04-30T00:37:51.709Z,95.40
2019-04-30T00:40:16.821Z,95.40
2019-04-30T00:42:45.814Z,95.20
2019-04-30T00:45:15.470Z,95.10
2019-04-30T00:47:47.769Z,94.90
2019-04-30T00:50:15.013Z,95.00
2019-04-30T00:52:45.683Z,94.80
2019-04-30T00:55:15.044Z,94.80
2019-04-30T00:57:46.084Z,94.70
2019-04-30T01:00:19.718Z,94.40
2019-04-30T01:02:55.587Z,94.30
2019-04-30T01:05:25.451Z,94.30
2019-04-30T01:07:55.090Z,94.00
2019-04-30T01:10:27.294Z,93.80
2019-04-30T01:12:54.312Z,93.60
2019-04-30T01:15:22.998Z,93.50
2019-04-30T01:17:53.785Z,93.60
2019-04-30T01:20:24.184Z,93.70
2019-04-30T01:22:52.419Z,93.80
2019-04-30T01:25:21.115Z,93.80
2019-04-30T01:27:49.833Z,93.80
2019-04-30T01:30:22.583Z,93.60
2019-04-30T01:32:51.938Z,93.50
2019-04-30T01:35:19.293Z,93.40
2019-04-30T01:37:48.762Z,93.20
2019-04-30T01:40:19.002Z,92.80
2019-04-30T01:42:50.757Z,93.00
2019-04-30T01:45:18.744Z,93.30
2019-04-30T01:47:49.467Z,93.20
2019-04-30T01:50:19.387Z,93.00
2019-04-30T01:52:54.381Z,92.70
2019-04-30T01:55:25.217Z,92.40
2019-04-30T01:57:55.537Z,92.70
2019-04-30T02:00:31.873Z,92.70
2019-04-30T02:03:00.614Z,92.80
2019-04-30T02:05:29.289Z,93.10
2019-04-30T02:07:58.510Z,93.10
2019-04-30T02:10:28.528Z,93.00
2019-04-30T02:12:59.026Z,92.80
2019-04-30T02:15:29.188Z,92.60
2019-04-30T02:17:58.690Z,92.70
2019-04-30T02:20:28.756Z,92.80
2019-04-30T02:22:58.835Z,92.70
2019-04-30T02:25:29.400Z,92.60
2019-04-30T02:27:59.033Z,92.80
2019-04-30T02:30:30.874Z,93.10
2019-04-30T02:33:00.470Z,93.00
2019-04-30T02:35:46.473Z,93.10
2019-04-30T02:38:25.323Z,92.80
2019-04-30T02:40:54.007Z,93.00
2019-04-30T02:43:23.284Z,92.70
2019-04-30T02:45:52.010Z,92.60
2019-04-30T02:48:20.674Z,92.40
2019-04-30T02:50:49.400Z,92.30
2019-04-30T02:53:50.692Z,92.30
2019-04-30T02:56:20.441Z,92.20
2019-04-30T02:58:50.641Z,92.10
2019-04-30T03:01:20.432Z,92.10
2019-04-30T03:03:50.016Z,91.80
2019-04-30T03:06:23.221Z,91.90
2019-04-30T03:08:51.281Z,92.00
2019-04-30T03:11:20.654Z,92.10
2019-04-30T03:13:49.874Z,91.80
2019-04-30T03:16:20.672Z,91.60
2019-04-30T03:18:54.322Z,91.60
2019-04-30T03:21:41.380Z,91.50
2019-04-30T03:24:11.168Z,91.60
2019-04-30T03:26:40.427Z,91.80
2019-04-30T03:29:11.298Z,91.60
2019-04-30T03:31:44.020Z,91.80
2019-04-30T03:34:16.818Z,92.10
2019-04-30T03:36:40.754Z,92.30
2019-04-30T03:39:10.886Z,92.00
2019-04-30T03:41:41.485Z,92.00
2019-04-30T03:44:20.994Z,92.00
2019-04-30T03:46:40.832Z,91.90
2019-04-30T03:49:10.612Z,91.70
2019-04-30T03:51:40.382Z,91.30
2019-04-30T03:54:10.163Z,91.20
2019-04-30T03:56:39.893Z,91.50
2019-04-30T03:59:10.495Z,91.40
2019-04-30T04:01:59.540Z,91.30
2019-04-30T04:04:32.363Z,91.30
2019-04-30T04:07:05.399Z,91.10
2019-04-30T04:09:49.847Z,91.40
2019-04-30T04:12:30.001Z,91.10
2019-04-30T04:15:03.291Z,91.30
2019-04-30T04:17:31.075Z,91.10
2019-04-30T04:19:59.752Z,91.40
2019-04-30T04:22:30.577Z,91.50
2019-04-30T04:24:59.973Z,91.20
2019-04-30T04:27:30.029Z,91.10
2019-04-30T04:30:01.231Z,90.70
2019-04-30T04:32:30.843Z,90.70
2019-04-30T04:35:00.359Z,90.60
2019-04-30T04:37:30.142Z,90.80
2019-04-30T04:39:59.682Z,90.50
2019-04-30T04:42:30.035Z,90.50
2019-04-30T04:44:59.476Z,90.60
2019-04-30T04:47:30.954Z,90.80
2019-04-30T04:50:00.707Z,90.30
2019-04-30T04:52:31.605Z,90.20
2019-04-30T04:55:00.386Z,90.30
2019-04-30T04:57:30.527Z,90.50
2019-04-30T05:00:06.542Z,90.30
2019-04-30T05:02:43.401Z,90.00
2019-04-30T05:05:12.085Z,89.70
2019-04-30T05:07:40.796Z,89.10
2019-04-30T05:10:09.683Z,88.70
2019-04-30T05:12:39.870Z,89.90
2019-04-30T05:15:09.555Z,88.80
2019-04-30T05:17:39.843Z,90.20
2019-04-30T05:20:09.955Z,89.20
2019-04-30T05:22:39.123Z,89.40
2019-04-30T05:25:08.870Z,88.00
2019-04-30T05:27:39.281Z,88.40
2019-04-30T05:30:09.724Z,88.20
2019-04-30T05:32:39.061Z,88.80
2019-04-30T05:35:09.546Z,88.40
2019-04-30T05:37:38.582Z,88.80
2019-04-30T05:40:09.189Z,87.10
2019-04-30T05:42:38.787Z,86.30
2019-04-30T05:45:09.348Z,87.90
2019-04-30T05:47:38.975Z,87.30
2019-04-30T05:50:08.964Z,87.40
2019-04-30T05:52:39.732Z,86.90
2019-04-30T05:55:08.696Z,86.40
2019-04-30T05:57:40.796Z,87.10
2019-04-30T06:00:09.970Z,87.50
2019-04-30T06:02:39.933Z,86.50
2019-04-30T06:05:08.924Z,88.00
2019-04-30T06:07:39.318Z,87.20
2019-04-30T06:10:10.640Z,87.70
2019-04-30T06:12:53.212Z,86.60
2019-04-30T06:15:23.507Z,85.60
2019-04-30T06:18:00.351Z,85.70
2019-04-30T06:20:24.135Z,85.20
2019-04-30T06:22:52.865Z,85.20
2019-04-30T06:25:31.557Z,85.20
2019-04-30T06:27:51.945Z,86.20
2019-04-30T06:30:20.627Z,84.30
2019-04-30T06:32:49.694Z,85.30
2019-04-30T06:35:19.395Z,85.20
2019-04-30T06:37:48.884Z,84.20
2019-04-30T06:40:19.607Z,84.90
2019-04-30T06:42:49.562Z,83.80
2019-04-30T06:45:19.123Z,83.10
2019-04-30T06:47:48.934Z,82.90
2019-04-30T06:50:19.442Z,84.70
2019-04-30T06:52:56.628Z,82.30
2019-04-30T06:55:19.297Z,82.80
2019-04-30T06:57:49.689Z,82.60
2019-04-30T07:00:20.779Z,81.90
2019-04-30T07:02:49.423Z,80.60
2019-04-30T07:05:18.614Z,81.20
2019-04-30T07:08:09.310Z,82.00
2019-04-30T07:10:36.514Z,80.70
2019-04-30T07:13:12.510Z,81.00
2019-04-30T07:15:41.208Z,81.00
2019-04-30T07:18:09.886Z,80.80
2019-04-30T07:20:38.816Z,78.30
2019-04-30T07:23:09.346Z,79.00
2019-04-30T07:25:39.101Z,79.00
2019-04-30T07:28:09.041Z,79.00
2019-04-30T07:30:39.516Z,76.80
2019-04-30T07:33:09.537Z,78.10
2019-04-30T07:35:39.946Z,78.20
2019-04-30T07:38:09.292Z,79.10
2019-04-30T07:40:38.984Z,79.40
2019-04-30T07:43:09.100Z,77.20
2019-04-30T07:45:39.734Z,76.90
2019-04-30T07:48:09.287Z,76.50
2019-04-30T07:50:40.987Z,75.70
2019-04-30T07:53:11.278Z,76.70
2019-04-30T07:55:39.366Z,77.80
2019-04-30T07:58:09.013Z,77.30
2019-04-30T08:00:40.222Z,76.30
2019-04-30T08:03:30.234Z,76.40
2019-04-30T08:06:00.082Z,75.90
2019-04-30T08:08:30.350Z,75.10
2019-04-30T08:10:59.292Z,76.20
2019-04-30T08:13:32.010Z,73.90
2019-04-30T08:15:59.674Z,74.10
2019-04-30T08:18:29.520Z,73.70
2019-04-30T08:20:59.049Z,73.30
2019-04-30T08:23:34.942Z,72.60
2019-04-30T08:25:59.074Z,71.80
2019-04-30T08:28:30.196Z,72.20
2019-04-30T08:30:58.984Z,72.00
2019-04-30T08:33:29.251Z,72.80
2019-04-30T08:36:00.790Z,73.20
2019-04-30T08:38:30.036Z,73.40
2019-04-30T08:41:00.863Z,73.20
2019-04-30T08:43:29.332Z,72.90
2019-04-30T08:45:59.502Z,73.00
2019-04-30T08:48:43.622Z,73.40
2019-04-30T08:50:59.525Z,73.40
2019-04-30T08:53:32.852Z,72.80
2019-04-30T08:55:59.204Z,73.60
2019-04-30T08:58:29.234Z,73.40
2019-04-30T09:00:58.746Z,72.60
2019-04-30T09:03:29.477Z,71.90
2019-04-30T09:06:02.522Z,72.40
2019-04-30T09:08:31.211Z,71.90
2019-04-30T09:10:59.934Z,71.60
2019-04-30T09:13:28.831Z,72.10
2019-04-30T09:15:59.305Z,72.10
2019-04-30T09:18:29.208Z,73.00
2019-04-30T09:21:04.220Z,72.90
2019-04-30T09:23:42.974Z,72.20
2019-04-30T09:25:58.736Z,72.30
2019-04-30T09:28:29.352Z,72.90
2019-04-30T09:30:58.684Z,72.20
2019-04-30T09:33:29.308Z,71.80
2019-04-30T09:35:59.519Z,72.10
2019-04-30T09:38:29.038Z,72.90
2019-04-30T09:40:59.427Z,70.90
2019-04-30T09:43:28.712Z,71.90
2019-04-30T09:45:59.153Z,72.00
2019-04-30T09:48:30.298Z,70.90
2019-04-30T09:51:00.261Z,71.50
2019-04-30T09:53:29.779Z,71.60
2019-04-30T09:55:59.638Z,71.10
2019-04-30T09:58:29.987Z,71.50
2019-04-30T10:00:59.330Z,71.60
2019-04-30T10:03:30.224Z,71.00
2019-04-30T10:05:59.044Z,71.20
2019-04-30T10:08:30.215Z,71.20
2019-04-30T10:11:05.911Z,70.60
2019-04-30T10:13:34.603Z,70.40
2019-04-30T10:16:09.646Z,70.90
2019-04-30T10:18:37.996Z,70.40
2019-04-30T10:21:06.714Z,67.80
2019-04-30T10:23:35.404Z,67.20
2019-04-30T10:26:04.134Z,67.40
2019-04-30T10:28:33.024Z,67.00
2019-04-30T10:31:01.754Z,66.40
2019-04-30T10:33:30.442Z,66.50
2019-04-30T10:35:59.514Z,66.00
2019-04-30T10:38:29.363Z,66.30
2019-04-30T10:40:58.724Z,63.90
2019-04-30T10:43:29.084Z,65.00
2019-04-30T10:45:58.560Z,65.80
2019-04-30T10:48:27.434Z,64.60
2019-04-30T10:50:56.114Z,65.00
2019-04-30T10:53:24.834Z,62.40
2019-04-30T10:55:53.522Z,63.10
2019-04-30T10:58:22.280Z,63.20
2019-04-30T11:00:50.945Z,62.80
2019-04-30T11:03:22.850Z,62.00
2019-04-30T11:05:49.993Z,60.80
2019-04-30T11:08:18.719Z,59.40
2019-04-30T11:10:47.407Z,60.10
2019-04-30T11:13:16.145Z,60.20
2019-04-30T11:15:45.134Z,58.80
2019-04-30T11:18:14.057Z,59.30
2019-04-30T11:20:43.100Z,58.90
2019-04-30T11:23:14.725Z,59.50
2019-04-30T11:25:42.770Z,60.00
2019-04-30T11:28:12.638Z,59.40
2019-04-30T11:30:41.880Z,58.80
2019-04-30T11:33:11.088Z,58.10
2019-04-30T11:35:39.946Z,57.80
2019-04-30T11:38:08.684Z,58.20
2019-04-30T11:40:39.794Z,58.20
2019-04-30T11:43:07.735Z,59.40
2019-04-30T11:45:54.617Z,59.70
2019-04-30T11:48:23.342Z,59.60
2019-04-30T11:50:52.035Z,59.50
2019-04-30T11:53:25.282Z,58.50
2019-04-30T11:55:51.096Z,57.80
2019-04-30T11:58:21.782Z,58.70
2019-04-30T12:00:50.261Z,59.20
2019-04-30T12:03:19.245Z,58.30
2019-04-30T12:05:49.084Z,56.80
2019-04-30T12:08:19.693Z,57.40
2019-04-30T12:10:56.023Z,57.40
2019-04-30T12:13:26.061Z,55.60
2019-04-30T12:15:55.338Z,55.60
2019-04-30T12:18:24.079Z,56.60
2019-04-30T12:20:52.770Z,55.40
2019-04-30T12:23:21.508Z,54.30
2019-04-30T12:25:50.201Z,54.80
2019-04-30T12:28:19.553Z,54.50
2019-04-30T12:30:48.923Z,53.50
2019-04-30T12:33:19.134Z,54.50
2019-04-30T12:35:51.066Z,53.40
2019-04-30T12:38:19.146Z,53.00
2019-04-30T12:40:48.130Z,53.20
2019-04-30T12:43:16.848Z,52.80
2019-04-30T12:45:45.543Z,53.30
2019-04-30T12:48:29.574Z,50.80
2019-04-30T12:50:59.981Z,49.80
2019-04-30T12:53:30.270Z,48.40
2019-04-30T12:56:06.502Z,47.80
2019-04-30T12:58:35.413Z,46.60
2019-04-30T13:01:04.210Z,45.90
2019-04-30T13:03:32.936Z,44.40
2019-04-30T13:06:02.523Z,41.30
2019-04-30T13:08:32.261Z,38.00
2019-04-30T13:11:01.805Z,33.70
2019-04-30T13:13:32.095Z,32.40
2019-04-30T13:16:01.366Z,30.40
2019-04-30T13:18:30.103Z,28.70
2019-04-30T13:20:59.067Z,27.40
2019-04-30T13:23:29.663Z,25.90
2019-04-30T13:25:58.508Z,25.90
2019-04-30T13:28:46.425Z,26.90
2019-04-30T13:31:15.113Z,28.80
2019-04-30T13:33:52.217Z,27.20
2019-04-30T13:36:21.311Z,27.00
2019-04-30T13:38:52.269Z,25.30
2019-04-30T13:41:42.984Z,25.70
2019-04-30T13:44:12.015Z,29.00
2019-04-30T13:46:40.718Z,28.70
2019-04-30T13:49:09.443Z,27.90
2019-04-30T13:51:38.129Z,26.00
2019-04-30T13:54:06.816Z,25.50
2019-04-30T13:56:35.539Z,26.20
2019-04-30T13:59:04.229Z,27.50
2019-04-30T14:01:32.959Z,28.60
2019-04-30T14:04:06.187Z,29.00
2019-04-30T14:06:39.461Z,28.30
2019-04-30T14:09:15.495Z,28.00
2019-04-30T14:11:44.220Z,28.70
2019-04-30T14:14:12.907Z,27.60
2019-04-30T14:16:43.843Z,27.00
2019-04-30T14:19:12.003Z,26.50
2019-04-30T14:21:40.698Z,24.90
2019-04-30T14:24:09.579Z,26.40
2019-04-30T14:26:39.103Z,26.70
2019-04-30T14:29:07.939Z,27.30
2019-04-30T14:31:38.733Z,26.70
2019-04-30T14:34:07.021Z,26.00
2019-04-30T14:36:35.790Z,25.40
2019-04-30T14:39:14.442Z,25.30
2019-04-30T14:41:40.334Z,24.50
2019-04-30T14:44:09.985Z,23.80
2019-04-30T14:46:41.004Z,23.40
2019-04-30T14:49:14.778Z,24.20
2019-04-30T14:51:42.006Z,24.20
2019-04-30T14:54:12.276Z,24.70
2019-04-30T14:56:42.568Z,25.10
2019-04-30T14:59:15.553Z,25.30
2019-04-30T15:01:45.863Z,25.10
2019-04-30T15:04:14.539Z,25.70
2019-04-30T15:06:43.274Z,25.50
2019-04-30T15:09:12.163Z,25.80
2019-04-30T15:11:40.915Z,23.90
2019-04-30T15:14:09.595Z,25.20
2019-04-30T15:16:38.318Z,24.50
2019-04-30T15:19:07.021Z,24.30
2019-04-30T15:21:35.738Z,24.10
2019-04-30T15:24:11.715Z,25.40
2019-04-30T15:26:41.320Z,24.90
2019-04-30T15:29:13.344Z,24.70
2019-04-30T15:31:42.611Z,25.90
2019-04-30T15:34:12.341Z,25.80
2019-04-30T15:36:41.187Z,26.40
2019-04-30T15:39:30.648Z,26.50
2019-04-30T15:41:58.167Z,26.70
2019-04-30T15:44:26.863Z,28.40
2019-04-30T15:46:55.573Z,28.60
2019-04-30T15:49:24.266Z,28.50
2019-04-30T15:51:52.996Z,28.30
2019-04-30T15:54:21.691Z,28.00
2019-04-30T15:56:50.377Z,29.30
2019-04-30T15:59:23.437Z,29.00
2019-04-30T16:02:02.828Z,29.70
2019-04-30T16:04:49.491Z,29.50
2019-04-30T16:07:19.602Z,29.40
2019-04-30T16:09:49.989Z,29.60
2019-04-30T16:12:26.323Z,30.00
2019-04-30T16:14:55.001Z,29.80
2019-04-30T16:17:29.121Z,31.00
2019-04-30T16:19:57.710Z,31.90
2019-04-30T16:22:26.493Z,32.10
2019-04-30T16:24:55.219Z,31.50
2019-04-30T16:27:23.901Z,32.40
2019-04-30T16:29:52.639Z,32.80
2019-04-30T16:32:23.125Z,32.70
2019-04-30T16:34:51.847Z,32.50
2019-04-30T16:37:20.535Z,32.80
2019-04-30T16:39:49.279Z,33.20
2019-04-30T16:42:19.059Z,33.20
2019-04-30T16:44:47.882Z,34.40
2019-04-30T16:47:17.107Z,34.00
2019-04-30T16:49:46.028Z,34.50
2019-04-30T16:52:14.799Z,35.10
2019-04-30T16:54:43.528Z,35.10
2019-04-30T16:57:12.219Z,33.70
2019-04-30T16:59:43.704Z,34.40
2019-04-30T17:02:13.206Z,34.20
2019-04-30T17:04:43.504Z,34.90
2019-04-30T17:07:31.761Z,34.30
2019-04-30T17:10:11.051Z,35.00
2019-04-30T17:12:59.319Z,35.20
2019-04-30T17:15:29.765Z,36.20
2019-04-30T17:17:58.787Z,35.60
2019-04-30T17:20:28.732Z,36.50
2019-04-30T17:22:59.375Z,37.30
2019-04-30T17:25:27.953Z,37.10
2019-04-30T17:27:58.896Z,37.00
2019-04-30T17:30:29.224Z,37.80
2019-04-30T17:32:59.572Z,38.30
2019-04-30T17:35:28.864Z,38.50
2019-04-30T17:37:57.712Z,38.80
2019-04-30T17:40:26.425Z,39.50
2019-04-30T17:42:55.119Z,39.50
2019-04-30T17:45:24.146Z,40.00
2019-04-30T17:47:52.825Z,40.30
2019-04-30T17:50:22.419Z,40.50
2019-04-30T17:52:51.156Z,40.60
2019-04-30T17:55:19.892Z,41.30
2019-04-30T17:57:48.777Z,41.40
2019-04-30T18:00:21.653Z,42.00
2019-04-30T18:02:47.952Z,42.50
2019-04-30T18:05:16.692Z,42.80
2019-04-30T18:07:45.371Z,43.00
2019-04-30T18:10:14.795Z,43.60
2019-04-30T18:12:43.483Z,44.20
2019-04-30T18:15:14.687Z,43.30
2019-04-30T18:17:44.956Z,43.50
2019-04-30T18:20:31.557Z,43.40
2019-04-30T18:23:01.819Z,44.40
2019-04-30T18:25:32.129Z,45.10
2019-04-30T18:28:02.428Z,45.00
2019-04-30T18:30:32.726Z,45.70
2019-04-30T18:33:01.415Z,45.40
2019-04-30T18:35:30.146Z,45.50
2019-04-30T18:37:58.845Z,46.00
2019-04-30T18:40:29.483Z,46.00
2019-04-30T18:42:59.376Z,46.20
2019-04-30T18:45:28.862Z,46.40
2019-04-30T18:47:59.450Z,46.60
2019-04-30T18:50:28.067Z,46.70
2019-04-30T18:52:58.746Z,47.00
2019-04-30T18:55:27.578Z,46.70
2019-04-30T18:57:57.201Z,46.60
2019-04-30T19:00:40.372Z,46.60
2019-04-30T19:03:09.058Z,46.40
2019-04-30T19:05:39.368Z,46.40
2019-04-30T19:08:15.587Z,45.70
2019-04-30T19:10:51.980Z,46.10
2019-04-30T19:13:22.300Z,46.40
2019-04-30T19:16:18.161Z,46.10
2019-04-30T19:18:36.545Z,45.70
2019-04-30T19:21:08.932Z,45.10
2019-04-30T19:23:38.896Z,46.00
2019-04-30T19:26:07.546Z,45.00
2019-04-30T19:28:36.288Z,45.70
2019-04-30T19:31:04.971Z,45.50
2019-04-30T19:33:33.724Z,45.90
2019-04-30T19:36:02.422Z,46.10
2019-04-30T19:38:31.180Z,46.00
2019-04-30T19:40:59.873Z,46.30
2019-04-30T19:43:28.688Z,46.00
2019-04-30T19:45:59.167Z,45.80
2019-04-30T19:48:27.791Z,46.30
2019-04-30T19:50:58.577Z,45.50
2019-04-30T19:53:26.891Z,46.50
2019-04-30T19:55:55.606Z,46.40
2019-04-30T19:58:29.506Z,46.20
2019-04-30T20:00:54.687Z,46.40
2019-04-30T20:03:23.423Z,46.70
2019-04-30T20:05:52.117Z,46.90
2019-04-30T20:08:20.851Z,46.90
2019-04-30T20:10:49.686Z,47.00
2019-04-30T20:13:30.864Z,47.10
2019-04-30T20:15:49.396Z,47.80
2019-04-30T20:18:19.100Z,46.80
2019-04-30T20:20:51.786Z,47.20
2019-04-30T20:23:19.822Z,46.70
2019-04-30T20:25:49.821Z,47.00
2019-04-30T20:28:18.553Z,46.80
2019-04-30T20:30:48.941Z,46.70
2019-04-30T20:33:19.053Z,46.80
2019-04-30T20:35:48.907Z,47.00
2019-04-30T20:38:34.823Z,47.10
2019-04-30T20:41:05.074Z,47.20
2019-04-30T20:43:33.802Z,47.30
2019-04-30T20:46:02.515Z,47.40
2019-04-30T20:48:31.239Z,47.80
2019-04-30T20:51:01.391Z,47.60
2019-04-30T20:53:30.358Z,47.60
2019-04-30T20:55:59.376Z,48.20
2019-04-30T20:58:28.197Z,48.00
2019-04-30T21:01:03.577Z,48.10
2019-04-30T21:03:29.396Z,48.40
2019-04-30T21:06:00.373Z,48.80
2019-04-30T21:08:27.989Z,48.80
2019-04-30T21:10:56.699Z,48.90
2019-04-30T21:13:25.434Z,49.10
2019-04-30T21:15:55.051Z,49.20
2019-04-30T21:18:23.972Z,49.20
2019-04-30T21:20:52.666Z,49.70
2019-04-30T21:23:21.413Z,49.90
2019-04-30T21:25:50.146Z,49.90
2019-04-30T21:28:19.773Z,50.20
2019-04-30T21:30:48.691Z,50.30
2019-04-30T21:33:21.955Z,50.90
2019-04-30T21:35:52.215Z,51.30
2019-04-30T21:38:21.018Z,50.90
2019-04-30T21:40:49.737Z,51.20
2019-04-30T21:43:18.415Z,51.30
2019-04-30T21:45:49.242Z,51.60
2019-04-30T21:48:19.197Z,51.20
2019-04-30T21:50:49.617Z,51.40
2019-04-30T21:53:19.543Z,51.50
2019-04-30T21:55:49.723Z,51.40
2019-04-30T21:58:20.388Z,51.80
2019-04-30T22:00:54.158Z,52.10
2019-04-30T22:03:22.851Z,52.20
2019-04-30T22:05:51.570Z,52.10
2019-04-30T22:08:20.260Z,52.40
2019-04-30T22:10:48.986Z,52.20
2019-04-30T22:13:18.522Z,52.10
2019-04-30T22:15:47.398Z,52.10
2019-04-30T22:18:16.082Z,52.20
2019-04-30T22:20:44.818Z,52.10
2019-04-30T22:23:13.512Z,52.80
2019-04-30T22:25:42.239Z,53.20
2019-04-30T22:28:10.933Z,53.90
2019-04-30T22:30:39.665Z,53.70
2019-04-30T22:33:08.927Z,54.10
2019-04-30T22:35:55.559Z,54.20
2019-04-30T22:38:25.824Z,54.30
2019-04-30T22:40:54.542Z,54.60
2019-04-30T22:43:23.219Z,55.00
2019-04-30T22:45:56.446Z,55.30
2019-04-30T22:48:25.156Z,55.50
2019-04-30T22:50:53.864Z,55.40
2019-04-30T22:53:22.564Z,55.80
2019-04-30T22:55:51.280Z,55.60
2019-04-30T22:58:19.967Z,55.80
2019-04-30T23:00:48.690Z,55.90
2019-04-30T23:03:27.956Z,56.40
2019-04-30T23:05:56.673Z,56.30
2019-04-30T23:08:25.370Z,56.40
2019-04-30T23:10:54.104Z,56.00
2019-04-30T23:13:22.979Z,56.60
2019-04-30T23:15:53.816Z,56.70
2019-04-30T23:18:22.498Z,56.80
2019-04-30T23:20:51.525Z,56.90
2019-04-30T23:23:20.217Z,57.40
2019-04-30T23:25:48.940Z,57.30
2019-04-30T23:28:17.626Z,57.20
2019-04-30T23:30:46.342Z,57.00
2019-04-30T23:33:15.028Z,57.00
2019-04-30T23:35:43.748Z,56.80
2019-04-30T23:38:12.447Z,56.50
2019-04-30T23:40:49.154Z,56.60
2019-04-30T23:43:17.850Z,56.40
2019-04-30T23:45:46.571Z,57.20
2019-04-30T23:48:15.354Z,56.40
2019-04-30T23:50:44.784Z,56.80
2019-04-30T23:53:13.469Z,56.80
2019-04-30T23:55:42.194Z,56.90
2019-04-30T23:58:10.886Z,57.10
